Time;durP1;ratioP1;P1;durP2;ratioP2;P2;SDS_P1;SDS_P2;PMS_P1;PMS_P2;Temp;Humidity;BMP_temperature;BMP_pressure;BME280_temperature;BME280_humidity;BME280_pressure;Samples;Min_cycle;Max_cycle;Signal;HPM_P1;HPM_P2
2023/08/02 00:00:34;;;;;;;8.13;4.38;;;;;;;23.25;63.91;94035.63;5071116;28;20197;-44
2023/08/02 00:03:01;;;;;;;6.07;4.32;;;;;;;23.21;64.11;94024.88;5071242;28;20278;-43
2023/08/02 00:05:30;;;;;;;8.20;5.13;;;;;;;23.22;64.07;94025.66;5070769;28;20623;-43
2023/08/02 00:07:58;;;;;;;7.07;4.50;;;;;;;23.24;64.14;94024.41;5071266;28;20248;-44
2023/08/02 00:10:25;;;;;;;6.65;4.78;;;;;;;23.16;64.38;94019.56;5071067;28;20186;-43
2023/08/02 00:12:52;;;;;;;5.18;4.50;;;;;;;23.20;64.52;94036.34;5070915;28;20202;-44
2023/08/02 00:15:19;;;;;;;5.95;4.43;;;;;;;23.18;64.86;94035.75;5070695;28;20727;-44
2023/08/02 00:17:46;;;;;;;5.25;4.07;;;;;;;23.10;64.50;94019.69;5070964;28;20277;-44
2023/08/02 00:20:13;;;;;;;4.78;4.22;;;;;;;23.22;64.46;94038.69;5070744;28;20280;-42
2023/08/02 00:22:41;;;;;;;5.13;4.30;;;;;;;23.19;64.80;94033.97;5071059;28;20187;-42
2023/08/02 00:25:10;;;;;;;9.05;4.10;;;;;;;23.14;64.84;94023.41;5070984;28;20198;-43
2023/08/02 00:27:36;;;;;;;5.47;4.75;;;;;;;23.16;64.97;94039.63;5070524;28;20669;-44
2023/08/02 00:30:04;;;;;;;10.13;4.72;;;;;;;23.16;64.99;94032.59;5070229;28;20233;-45
2023/08/02 00:32:31;;;;;;;6.45;4.55;;;;;;;23.18;64.97;94040.19;5070539;28;20190;-43
2023/08/02 00:34:58;;;;;;;5.78;4.45;;;;;;;23.17;65.05;94033.41;5070322;28;20617;-45
2023/08/02 00:37:24;;;;;;;4.80;4.32;;;;;;;23.19;65.27;94034.75;5070286;28;20195;-44
2023/08/02 00:39:53;;;;;;;9.20;5.53;;;;;;;23.22;65.10;94036.09;5071097;28;20186;-44
2023/08/02 00:42:21;;;;;;;4.65;3.85;;;;;;;23.26;65.32;94032.00;5070993;28;20194;-44
2023/08/02 00:44:48;;;;;;;8.95;5.47;;;;;;;23.34;65.49;94043.88;5070342;28;20663;-45
2023/08/02 00:47:15;;;;;;;24.38;16.60;;;;;;;23.31;65.30;94039.91;5070024;28;20190;-45
2023/08/02 00:49:41;;;;;;;18.48;14.57;;;;;;;23.29;65.39;94034.94;5070217;28;20194;-45
2023/08/02 00:52:08;;;;;;;5.47;4.93;;;;;;;23.26;65.25;94034.59;5070189;28;20213;-48
2023/08/02 00:54:35;;;;;;;6.80;5.68;;;;;;;23.31;64.94;94031.31;5070348;28;20182;-43
2023/08/02 00:57:04;;;;;;;5.82;5.28;;;;;;;23.26;64.92;94024.16;5070171;28;20204;-43
2023/08/02 00:59:31;;;;;;;7.15;4.88;;;;;;;23.29;65.12;94024.50;5069972;28;20198;-44
2023/08/02 01:01:58;;;;;;;5.80;5.15;;;;;;;23.28;65.33;94024.75;5069924;28;20191;-45
2023/08/02 01:04:25;;;;;;;5.70;4.88;;;;;;;23.14;65.11;94008.56;5069673;28;20197;-43
2023/08/02 01:06:58;;;;;;;7.53;5.20;;;;;;;23.19;65.14;94019.09;5070322;28;20219;-45
2023/08/02 01:09:29;;;;;;;8.25;4.65;;;;;;;23.23;65.65;94030.66;5069864;28;20210;-45
2023/08/02 01:12:05;;;;;;;5.13;4.63;;;;;;;23.21;65.60;94032.69;5069820;28;20661;-42
2023/08/02 01:14:35;;;;;;;5.60;4.45;;;;;;;23.19;65.88;94028.75;5069863;28;20596;-44
2023/08/02 01:17:03;;;;;;;8.13;4.80;;;;;;;23.14;65.92;94028.63;5069745;28;20616;-44
2023/08/02 01:19:32;;;;;;;7.32;4.40;;;;;;;23.13;66.17;94024.44;5069526;28;20190;-44
2023/08/02 01:22:00;;;;;;;6.15;4.72;;;;;;;23.11;66.29;94018.69;5069608;28;20665;-45
2023/08/02 01:24:32;;;;;;;7.55;4.50;;;;;;;22.92;66.70;93995.34;5069595;28;20205;-44
2023/08/02 01:27:02;;;;;;;5.57;4.82;;;;;;;23.04;66.50;94022.19;5069716;28;20285;-43
2023/08/02 01:29:30;;;;;;;10.75;4.70;;;;;;;23.04;66.80;94024.81;5069390;28;20210;-44
2023/08/02 01:31:58;;;;;;;10.18;7.50;;;;;;;23.06;66.81;94026.38;5069730;28;20195;-42
2023/08/02 01:34:25;;;;;;;8.20;5.50;;;;;;;23.02;66.79;94013.81;5069205;28;20247;-43
2023/08/02 01:36:52;;;;;;;18.17;14.15;;;;;;;23.03;66.68;94014.63;5069687;28;20704;-45
2023/08/02 01:39:20;;;;;;;95.70;67.13;;;;;;;23.02;66.72;94010.44;5069003;28;20190;-43
2023/08/02 01:41:49;;;;;;;19.60;14.05;;;;;;;23.01;66.69;94016.66;5069227;28;20198;-44
2023/08/02 01:44:16;;;;;;;10.20;7.22;;;;;;;22.97;66.86;94005.09;5068771;28;20197;-43
2023/08/02 01:46:43;;;;;;;8.45;6.10;;;;;;;22.96;67.19;94008.72;5069313;28;20613;-43
2023/08/02 01:49:10;;;;;;;9.18;6.55;;;;;;;22.79;67.05;93983.34;5069001;28;20207;-43
2023/08/02 01:51:37;;;;;;;7.43;6.10;;;;;;;22.88;67.57;94007.22;5069383;28;20201;-43
2023/08/02 01:54:04;;;;;;;8.70;6.13;;;;;;;22.84;67.69;94000.09;5068911;28;20255;-44
2023/08/02 01:56:32;;;;;;;7.30;5.93;;;;;;;22.81;67.98;93997.97;5069184;28;20225;-43
2023/08/02 01:58:59;;;;;;;5.82;5.22;;;;;;;22.78;68.33;94002.63;5068810;28;20628;-45
2023/08/02 02:01:25;;;;;;;6.43;5.13;;;;;;;22.76;68.44;94003.88;5069165;28;20650;-43
2023/08/02 02:03:52;;;;;;;6.80;5.75;;;;;;;22.56;68.57;93969.56;5069037;28;20192;-44
2023/08/02 02:06:19;;;;;;;5.07;4.60;;;;;;;22.75;68.92;93999.66;5068833;28;20669;-43
2023/08/02 02:08:46;;;;;;;5.90;5.32;;;;;;;22.72;68.84;94005.38;5069018;28;20201;-43
2023/08/02 02:11:12;;;;;;;8.98;6.32;;;;;;;22.71;68.82;94001.16;5068845;28;20198;-45
2023/08/02 02:13:40;;;;;;;5.78;5.07;;;;;;;22.71;69.16;94006.34;5068923;28;20789;-44
2023/08/02 02:16:09;;;;;;;7.20;5.20;;;;;;;22.69;69.58;94003.19;5069007;28;20214;-43
2023/08/02 02:18:36;;;;;;;8.80;5.35;;;;;;;22.68;69.44;94006.84;5069158;28;20201;-44
2023/08/02 02:21:03;;;;;;;7.22;5.35;;;;;;;22.46;68.91;93978.78;5068655;28;20209;-44
2023/08/02 02:23:30;;;;;;;5.93;4.85;;;;;;;22.63;69.12;94027.59;5069302;28;20255;-43
2023/08/02 02:25:57;;;;;;;6.07;5.40;;;;;;;22.61;69.38;94017.38;5068880;28;20194;-45
2023/08/02 02:28:24;;;;;;;7.88;4.93;;;;;;;22.58;69.58;94019.63;5068698;28;20198;-45
2023/08/02 02:30:52;;;;;;;7.60;5.60;;;;;;;22.53;69.38;94015.91;5068829;28;20253;-44
2023/08/02 02:33:19;;;;;;;9.32;5.30;;;;;;;22.53;69.19;94020.31;5070345;28;20194;-44
2023/08/02 02:35:46;;;;;;;10.32;5.00;;;;;;;22.50;69.03;94015.59;5069250;28;20214;-45
2023/08/02 02:38:13;;;;;;;6.28;5.13;;;;;;;22.54;68.98;94019.31;5069069;28;20194;-43
2023/08/02 02:40:40;;;;;;;6.22;5.15;;;;;;;22.57;68.98;94025.88;5067696;28;20198;-43
2023/08/02 02:43:07;;;;;;;9.98;5.97;;;;;;;22.57;69.44;94034.47;5068555;28;20665;-45
2023/08/02 02:45:34;;;;;;;6.80;6.03;;;;;;;22.62;69.30;94033.81;5101126;28;20206;-44
2023/08/02 02:48:02;;;;;;;6.97;5.40;;;;;;;22.61;69.42;94040.03;5069038;28;20205;-45
2023/08/02 02:50:29;;;;;;;8.55;5.68;;;;;;;22.58;69.87;94038.66;5068939;28;20186;-46
2023/08/02 02:52:56;;;;;;;10.82;5.57;;;;;;;22.55;69.73;94036.53;5068618;28;20197;-44
2023/08/02 02:55:23;;;;;;;7.50;6.70;;;;;;;22.58;69.83;94046.50;5072045;28;20222;-43
2023/08/02 02:57:50;;;;;;;6.18;4.85;;;;;;;22.64;70.48;94050.81;5071799;28;20194;-45
2023/08/02 03:00:17;;;;;;;7.13;5.18;;;;;;;22.67;70.73;94054.78;5072492;28;20228;-45
2023/08/02 03:02:44;;;;;;;9.57;5.55;;;;;;;22.58;70.50;94061.34;5072155;28;20186;-45
2023/08/02 03:05:14;;;;;;;6.10;5.50;;;;;;;22.52;70.53;94063.03;5072241;28;20622;-43
2023/08/02 03:07:41;;;;;;;6.15;4.82;;;;;;;22.43;70.73;94060.00;5072460;28;20186;-45
2023/08/02 03:10:08;;;;;;;9.07;5.00;;;;;;;22.43;70.99;94062.59;5072261;28;20612;-45
2023/08/02 03:12:35;;;;;;;5.90;5.07;;;;;;;22.45;71.06;94060.56;5072005;28;20208;-43
2023/08/02 03:15:02;;;;;;;7.30;5.40;;;;;;;22.42;71.41;94055.81;5071959;28;20194;-44
2023/08/02 03:17:29;;;;;;;9.38;6.57;;;;;;;22.41;71.33;94056.00;5072000;28;20221;-45
2023/08/02 03:19:56;;;;;;;6.47;5.25;;;;;;;22.41;71.24;94059.44;5071998;28;20260;-44
2023/08/02 03:22:24;;;;;;;8.20;5.18;;;;;;;22.40;71.24;94052.63;5071927;28;20193;-43
2023/08/02 03:24:51;;;;;;;11.07;5.40;;;;;;;22.38;71.39;94059.09;5071694;28;20573;-44
2023/08/02 03:27:20;;;;;;;7.90;5.28;;;;;;;22.39;71.31;94053.63;5072048;28;20186;-45
2023/08/02 03:29:48;;;;;;;5.85;4.63;;;;;;;22.44;71.19;94060.78;5071552;28;20225;-45
2023/08/02 03:32:15;;;;;;;8.85;5.45;;;;;;;22.40;71.43;94060.44;5071980;28;20190;-44
2023/08/02 03:34:42;;;;;;;5.20;4.57;;;;;;;22.39;71.34;94060.66;5072003;28;20289;-45
2023/08/02 03:37:09;;;;;;;8.65;5.28;;;;;;;22.39;71.40;94064.06;5071877;28;20228;-45
2023/08/02 03:39:37;;;;;;;8.98;5.05;;;;;;;22.38;71.16;94057.28;5071590;28;20535;-44
2023/08/02 03:42:04;;;;;;;8.43;4.85;;;;;;;22.36;71.25;94061.09;5071606;28;20199;-44
2023/08/02 03:44:31;;;;;;;8.38;5.15;;;;;;;22.34;71.46;94070.97;5071562;28;20221;-45
2023/08/02 03:46:58;;;;;;;6.00;5.40;;;;;;;22.38;71.26;94074.72;5071519;28;20190;-44
2023/08/02 03:49:25;;;;;;;12.30;4.93;;;;;;;22.35;70.88;94062.94;5070672;28;20305;-44
2023/08/02 03:51:52;;;;;;;6.15;5.07;;;;;;;22.44;70.81;94071.19;5071615;28;20190;-44
2023/08/02 03:54:19;;;;;;;9.07;5.13;;;;;;;22.46;70.75;94058.75;5071909;28;20190;-46
2023/08/02 03:56:48;;;;;;;7.88;5.55;;;;;;;22.48;70.66;94062.69;5071360;28;20222;-45
2023/08/02 03:59:17;;;;;;;8.43;5.38;;;;;;;22.49;70.85;94066.88;5071243;28;20259;-43
2023/08/02 04:01:45;;;;;;;5.47;4.82;;;;;;;22.49;70.97;94066.09;5071315;28;20197;-44
2023/08/02 04:04:14;;;;;;;6.63;5.43;;;;;;;22.49;70.92;94068.69;5071337;28;20191;-44
2023/08/02 04:06:42;;;;;;;7.55;5.32;;;;;;;22.47;71.10;94066.34;5070047;28;20499;-44
2023/08/02 04:09:08;;;;;;;5.70;5.07;;;;;;;22.57;70.96;94070.19;5070731;28;20194;-44
2023/08/02 04:11:35;;;;;;;7.72;5.47;;;;;;;22.62;70.98;94068.47;5069767;28;20194;-44
2023/08/02 04:14:04;;;;;;;7.85;6.43;;;;;;;22.62;70.66;94076.28;5071117;28;20202;-44
2023/08/02 04:16:30;;;;;;;6.88;5.70;;;;;;;22.56;70.76;94077.22;5070592;28;20214;-43
2023/08/02 04:18:57;;;;;;;10.48;6.43;;;;;;;22.63;70.96;94074.50;5071412;28;20216;-44
2023/08/02 04:21:24;;;;;;;7.95;6.20;;;;;;;22.64;70.89;94071.66;5070709;28;20186;-44
2023/08/02 04:23:51;;;;;;;8.20;5.88;;;;;;;22.68;70.69;94062.38;5070794;28;20685;-46
2023/08/02 04:26:19;;;;;;;8.27;5.82;;;;;;;22.65;70.57;94051.59;5071700;28;20183;-44
2023/08/02 04:28:46;;;;;;;9.38;6.03;;;;;;;22.78;70.47;94064.38;5070767;28;20600;-45
2023/08/02 04:31:15;;;;;;;8.30;6.50;;;;;;;22.87;70.17;94070.06;5070642;28;20316;-45
2023/08/02 04:33:41;;;;;;;7.82;6.03;;;;;;;22.91;70.06;94069.41;5070989;28;20202;-44
2023/08/02 04:36:08;;;;;;;8.60;6.18;;;;;;;23.07;70.14;94073.13;5070565;28;20218;-44
2023/08/02 04:38:35;;;;;;;12.40;6.28;;;;;;;23.01;69.38;94042.72;5070438;28;20190;-45
2023/08/02 04:41:02;;;;;;;8.18;6.35;;;;;;;23.22;69.03;94068.19;5071239;28;20186;-44
2023/08/02 04:43:29;;;;;;;7.90;5.88;;;;;;;23.26;68.73;94061.50;5070891;28;20296;-45
2023/08/02 04:45:56;;;;;;;12.90;5.75;;;;;;;23.34;68.95;94064.75;5070603;28;20195;-44
2023/08/02 04:48:24;;;;;;;10.77;6.15;;;;;;;23.38;68.67;94060.66;5070062;28;20198;-44
2023/08/02 04:50:50;;;;;;;9.02;6.45;;;;;;;22.98;68.06;93997.06;5070692;28;20183;-45
2023/08/02 04:53:17;;;;;;;9.15;6.22;;;;;;;23.52;67.70;94070.59;5070110;28;20206;-42
2023/08/02 04:55:45;;;;;;;11.15;6.22;;;;;;;23.57;68.01;94072.50;5070200;28;20281;-45
2023/08/02 04:58:12;;;;;;;8.02;5.80;;;;;;;23.60;67.63;94079.88;5069926;28;20297;-46
2023/08/02 05:00:39;;;;;;;8.27;6.70;;;;;;;23.64;66.96;94086.22;5069882;28;20527;-43
2023/08/02 05:03:06;;;;;;;7.28;6.50;;;;;;;23.61;67.60;94089.28;5070208;28;20189;-43
2023/08/02 05:05:34;;;;;;;8.57;6.43;;;;;;;23.55;67.42;94085.00;5070162;28;20571;-44
2023/08/02 05:08:01;;;;;;;8.73;6.75;;;;;;;23.57;67.45;94085.56;5070163;28;20190;-43
2023/08/02 05:10:28;;;;;;;8.45;6.57;;;;;;;23.51;66.86;94076.06;5070073;28;20283;-45
2023/08/02 05:12:55;;;;;;;7.72;6.93;;;;;;;23.45;66.91;94067.34;5070235;28;20252;-43
2023/08/02 05:15:21;;;;;;;8.55;6.90;;;;;;;23.57;66.83;94080.34;5069748;28;20194;-46
2023/08/02 05:17:48;;;;;;;9.63;6.60;;;;;;;23.69;66.71;94080.31;5069884;28;20628;-44
2023/08/02 05:20:15;;;;;;;10.75;6.93;;;;;;;23.83;66.23;94086.84;5069756;28;20218;-45
2023/08/02 05:22:43;;;;;;;10.88;6.97;;;;;;;23.82;66.62;94098.31;5069986;28;20197;-46
2023/08/02 05:25:10;;;;;;;11.68;6.50;;;;;;;23.84;66.75;94100.72;5069751;28;20197;-45
2023/08/02 05:27:37;;;;;;;11.98;6.90;;;;;;;23.93;66.25;94097.47;5070104;28;20697;-44
2023/08/02 05:30:05;;;;;;;9.50;7.13;;;;;;;24.03;65.55;94102.06;5069549;28;20264;-45
2023/08/02 05:32:32;;;;;;;14.02;6.53;;;;;;;24.13;65.03;94110.06;5070017;28;20182;-44
2023/08/02 05:34:59;;;;;;;12.73;7.18;;;;;;;24.27;64.37;94107.97;5069742;28;20220;-45
2023/08/02 05:37:28;;;;;;;11.80;7.50;;;;;;;24.40;63.59;94110.31;5069699;28;20214;-44
2023/08/02 05:39:57;;;;;;;11.68;7.25;;;;;;;24.35;63.34;94097.09;5069645;28;20186;-47
2023/08/02 05:42:23;;;;;;;16.95;8.13;;;;;;;24.52;63.33;94113.63;5069982;28;20213;-44
2023/08/02 05:44:50;;;;;;;10.48;6.85;;;;;;;24.18;62.49;94042.25;5069940;28;20204;-45
2023/08/02 05:47:17;;;;;;;9.95;7.30;;;;;;;24.82;62.23;94122.16;5069658;28;20241;-45
2023/08/02 05:49:44;;;;;;;9.52;6.90;;;;;;;24.88;61.99;94132.47;5069601;28;20191;-44
2023/08/02 05:52:10;;;;;;;9.52;6.93;;;;;;;24.95;62.58;94145.34;5069381;28;20198;-45
2023/08/02 05:54:37;;;;;;;11.18;6.35;;;;;;;25.11;61.85;94143.78;5069990;28;20214;-46
2023/08/02 05:57:06;;;;;;;14.38;7.00;;;;;;;25.25;61.36;94137.94;5069636;28;20688;-44
2023/08/02 05:59:33;;;;;;;10.30;7.13;;;;;;;25.54;60.17;94129.94;5069483;28;20192;-45
2023/08/02 06:02:00;;;;;;;12.18;6.28;;;;;;;25.79;59.71;94134.69;5069522;28;20214;-46
2023/08/02 06:04:27;;;;;;;7.18;6.32;;;;;;;25.95;59.84;94128.59;5069757;28;20515;-44
2023/08/02 06:06:54;;;;;;;10.73;7.43;;;;;;;26.19;59.44;94131.69;5069245;28;20187;-45
2023/08/02 06:09:21;;;;;;;9.07;7.18;;;;;;;26.57;57.70;94139.66;5069509;28;20786;-46
2023/08/02 06:11:48;;;;;;;9.10;6.88;;;;;;;26.87;56.07;94144.31;5070308;28;20201;-45
2023/08/02 06:14:16;;;;;;;9.77;7.07;;;;;;;27.04;55.74;94139.72;5069509;28;20195;-43
2023/08/02 06:16:43;;;;;;;11.48;6.85;;;;;;;27.30;55.03;94137.25;5069294;28;20221;-44
2023/08/02 06:19:10;;;;;;;8.57;7.00;;;;;;;27.73;53.92;94150.06;5069602;28;20277;-45
2023/08/02 06:21:37;;;;;;;10.63;7.55;;;;;;;27.99;52.39;94122.03;5069769;28;20190;-46
2023/08/02 06:24:04;;;;;;;9.00;7.70;;;;;;;28.43;51.11;94145.25;5069742;28;20201;-45
2023/08/02 06:26:31;;;;;;;9.93;7.65;;;;;;;28.65;50.81;94146.84;5069385;28;20197;-45
2023/08/02 06:29:00;;;;;;;14.82;8.38;;;;;;;28.96;49.75;94151.03;5070457;28;20202;-44
2023/08/02 06:31:28;;;;;;;15.25;7.70;;;;;;;29.09;49.36;94144.44;5073255;28;20652;-45
2023/08/02 06:33:55;;;;;;;8.60;7.70;;;;;;;29.24;48.56;94141.00;5073163;28;20196;-44
2023/08/02 06:36:21;;;;;;;8.85;7.57;;;;;;;29.30;48.42;94144.41;5072927;28;20328;-45
2023/08/02 06:38:48;;;;;;;10.15;7.07;;;;;;;29.13;48.84;94142.06;5073079;28;20194;-46
2023/08/02 06:41:15;;;;;;;9.65;7.45;;;;;;;29.19;48.89;94144.44;5073503;28;20198;-44
2023/08/02 06:43:42;;;;;;;11.95;7.50;;;;;;;29.15;48.46;94119.69;5072945;28;20662;-45
2023/08/02 06:46:09;;;;;;;8.35;7.60;;;;;;;29.25;48.08;94126.75;5073243;28;20193;-46
2023/08/02 06:48:37;;;;;;;9.27;7.45;;;;;;;29.30;48.27;94126.75;5073228;28;20183;-46
2023/08/02 06:51:04;;;;;;;12.93;7.07;;;;;;;29.60;47.81;94123.25;5073207;28;20183;-44
2023/08/02 06:53:31;;;;;;;9.35;7.55;;;;;;;29.95;47.36;94127.53;5072851;28;20190;-45
2023/08/02 06:55:58;;;;;;;8.25;7.45;;;;;;;30.10;47.41;94126.69;5073289;28;20197;-45
2023/08/02 06:58:25;;;;;;;14.48;7.13;;;;;;;30.39;46.50;94126.75;5072832;28;20226;-43
2023/08/02 07:00:52;;;;;;;10.10;7.85;;;;;;;30.54;46.18;94125.09;5072734;28;20198;-46
2023/08/02 07:03:21;;;;;;;10.63;7.90;;;;;;;30.67;45.86;94129.72;5072690;28;20190;-45
2023/08/02 07:05:50;;;;;;;17.25;8.45;;;;;;;30.63;46.21;94126.84;5072615;28;20190;-45
2023/08/02 07:08:16;;;;;;;8.30;7.45;;;;;;;30.53;46.42;94119.03;5072998;28;20182;-46
2023/08/02 07:10:43;;;;;;;10.75;6.55;;;;;;;31.03;46.67;94129.44;5072187;28;20206;-45
2023/08/02 07:13:10;;;;;;;8.18;6.40;;;;;;;31.58;45.28;94132.56;5072485;28;20674;-47
2023/08/02 07:15:37;;;;;;;16.10;7.18;;;;;;;31.97;44.29;94137.66;5072414;28;20197;-46
2023/08/02 07:18:03;;;;;;;8.25;6.90;;;;;;;31.90;44.04;94113.41;5072318;28;20289;-46
2023/08/02 07:20:30;;;;;;;8.45;7.32;;;;;;;32.12;44.00;94139.28;5072276;28;20639;-46
2023/08/02 07:22:58;;;;;;;8.25;7.28;;;;;;;32.04;43.79;94137.28;5072896;28;20178;-45
2023/08/02 07:25:25;;;;;;;7.60;6.70;;;;;;;32.06;44.13;94137.78;5071791;28;20193;-44
2023/08/02 07:27:52;;;;;;;9.10;7.05;;;;;;;32.27;43.81;94133.78;5072225;28;20190;-46
2023/08/02 07:30:19;;;;;;;10.52;6.63;;;;;;;32.55;43.76;94145.28;5071878;28;20564;-45
2023/08/02 07:32:46;;;;;;;7.03;6.22;;;;;;;32.82;42.83;94141.19;5071988;28;20194;-44
2023/08/02 07:35:13;;;;;;;9.27;6.70;;;;;;;32.80;42.59;94141.44;5072320;28;20190;-44
2023/08/02 07:37:40;;;;;;;7.70;6.30;;;;;;;32.80;42.69;94130.84;5071757;28;20206;-44
2023/08/02 07:40:09;;;;;;;9.23;6.95;;;;;;;33.01;42.49;94135.84;5070572;28;20259;-44
2023/08/02 07:42:36;;;;;;;7.00;6.32;;;;;;;33.18;42.43;94142.16;5071536;28;20260;-45
2023/08/02 07:45:07;;;;;;;11.63;6.68;;;;;;;33.36;41.75;94142.34;5071962;28;20677;-44
2023/08/02 07:47:34;;;;;;;9.15;6.68;;;;;;;33.39;42.05;94139.91;5071200;28;20201;-45
2023/08/02 07:50:01;;;;;;;8.48;6.63;;;;;;;33.46;42.04;94142.19;5071761;28;20646;-45
2023/08/02 07:52:28;;;;;;;11.85;6.45;;;;;;;33.56;41.83;94139.34;5071190;28;20589;-44
2023/08/02 07:54:55;;;;;;;10.45;6.68;;;;;;;33.71;41.92;94139.03;5071753;28;20199;-44
2023/08/02 07:57:26;;;;;;;16.48;7.32;;;;;;;33.60;41.41;94116.47;5071500;28;20217;-45
2023/08/02 07:59:53;;;;;;;10.32;6.72;;;;;;;33.82;41.45;94136.97;5071387;28;20190;-43
2023/08/02 08:02:20;;;;;;;6.97;6.38;;;;;;;34.00;40.88;94135.28;5072466;28;20230;-45
2023/08/02 08:04:47;;;;;;;9.27;7.38;;;;;;;33.97;40.85;94135.09;5071933;28;20186;-43
2023/08/02 08:07:14;;;;;;;9.05;6.95;;;;;;;34.10;40.39;94131.63;5071428;28;20563;-47
2023/08/02 08:09:40;;;;;;;7.00;6.28;;;;;;;34.07;40.31;94130.38;5071391;28;20193;-47
2023/08/02 08:12:08;;;;;;;17.65;7.60;;;;;;;33.92;40.44;94125.34;5071168;28;20198;-44
2023/08/02 08:14:37;;;;;;;8.70;6.43;;;;;;;33.99;40.53;94125.75;5071165;28;20194;-45
2023/08/02 08:17:04;;;;;;;10.40;6.72;;;;;;;34.04;40.43;94125.66;5071134;28;20598;-45
2023/08/02 08:19:34;;;;;;;14.95;6.93;;;;;;;34.00;40.52;94123.91;5070685;28;20701;-45
2023/08/02 08:22:01;;;;;;;8.18;6.95;;;;;;;33.84;40.48;94126.84;5071193;28;20186;-44
2023/08/02 08:24:28;;;;;;;9.63;7.47;;;;;;;33.76;40.96;94132.06;5070611;28;20646;-44
2023/08/02 08:26:55;;;;;;;12.57;6.07;;;;;;;33.71;40.72;94131.06;5070888;28;20178;-43
2023/08/02 08:29:22;;;;;;;6.90;6.22;;;;;;;33.67;40.85;94127.44;5070568;28;20190;-45
2023/08/02 08:31:50;;;;;;;7.82;6.05;;;;;;;33.56;40.56;94114.69;5050759;28;20202;-46
2023/08/02 08:34:16;;;;;;;8.93;6.25;;;;;;;33.63;40.51;94130.97;5050849;28;20280;-45
2023/08/02 08:36:43;;;;;;;5.72;5.22;;;;;;;33.47;40.58;94132.38;5050854;28;20198;-45
2023/08/02 08:39:10;;;;;;;9.15;6.10;;;;;;;33.41;40.63;94137.72;5050796;28;20229;-45
2023/08/02 08:41:37;;;;;;;6.78;6.15;;;;;;;33.39;40.63;94131.16;5050864;28;20191;-45
2023/08/02 08:44:04;;;;;;;7.60;6.05;;;;;;;33.43;40.32;94138.25;5050425;28;20191;-44
2023/08/02 08:46:32;;;;;;;6.82;5.75;;;;;;;33.53;38.93;94141.81;5050590;28;20191;-44
2023/08/02 08:49:00;;;;;;;5.60;5.05;;;;;;;33.49;38.78;94131.00;5050154;28;20274;-44
2023/08/02 08:51:28;;;;;;;5.70;5.20;;;;;;;33.62;38.41;94127.53;5049930;28;20191;-44
2023/08/02 08:53:55;;;;;;;7.47;5.63;;;;;;;33.80;38.46;94123.19;5050415;28;20583;-45
2023/08/02 08:56:25;;;;;;;6.45;5.07;;;;;;;33.93;38.11;94126.91;5050634;28;20625;-44
2023/08/02 08:58:53;;;;;;;6.80;5.00;;;;;;;34.02;37.31;94127.03;5050765;28;20258;-45
2023/08/02 09:01:20;;;;;;;5.20;4.65;;;;;;;34.05;35.36;94116.59;5050853;28;20214;-44
2023/08/02 09:03:47;;;;;;;7.20;4.50;;;;;;;34.10;35.82;94129.75;5050125;28;20195;-44
2023/08/02 09:06:16;;;;;;;5.93;4.45;;;;;;;34.06;35.05;94117.38;5050184;28;20198;-44
2023/08/02 09:08:44;;;;;;;4.38;3.97;;;;;;;33.99;34.48;94119.69;5050244;28;20283;-45
2023/08/02 09:11:11;;;;;;;7.57;3.97;;;;;;;33.91;35.05;94111.31;5050145;28;20195;-43
2023/08/02 09:13:38;;;;;;;4.15;3.75;;;;;;;34.12;34.02;94118.84;5050085;28;20191;-44
2023/08/02 09:16:07;;;;;;;4.68;4.18;;;;;;;34.17;34.31;94124.03;5049766;28;20233;-45
2023/08/02 09:18:38;;;;;;;4.15;3.85;;;;;;;34.25;33.62;94115.38;5049697;28;20233;-44
2023/08/02 09:21:05;;;;;;;5.03;3.67;;;;;;;34.39;33.49;94110.78;5049770;28;20190;-46
2023/08/02 09:23:34;;;;;;;4.28;3.88;;;;;;;34.46;33.24;94097.09;5049844;28;20625;-44
2023/08/02 09:26:14;;;;;;;4.20;3.83;;;;;;;34.55;33.31;94119.22;5050053;28;20187;-45
2023/08/02 09:28:41;;;;;;;4.10;3.80;;;;;;;34.48;33.11;94115.41;5049548;28;20203;-43
2023/08/02 09:31:15;;;;;;;3.83;3.50;;;;;;;34.40;32.85;94125.63;5063750;28;20280;-42
2023/08/02 09:33:49;;;;;;;3.88;3.58;;;;;;;34.40;32.73;94119.53;5069723;28;20190;-44
2023/08/02 09:36:23;;;;;;;3.70;3.40;;;;;;;34.42;32.76;94117.38;5069774;28;20186;-46
2023/08/02 09:39:03;;;;;;;4.75;3.92;;;;;;;34.53;33.06;94120.59;5069828;28;20214;-44
2023/08/02 09:41:31;;;;;;;4.43;4.03;;;;;;;34.62;32.36;94119.56;5069497;28;20213;-44
2023/08/02 09:43:58;;;;;;;3.88;3.58;;;;;;;34.57;32.31;94101.09;5069396;28;20198;-44
2023/08/02 09:46:29;;;;;;;3.97;3.67;;;;;;;34.78;32.52;94101.38;5068934;28;20189;-43
2023/08/02 09:48:57;;;;;;;4.28;3.88;;;;;;;34.96;32.94;94112.88;5069406;28;20198;-45
2023/08/02 09:51:39;;;;;;;4.35;3.90;;;;;;;35.00;32.61;94113.84;5069217;28;20194;-44
2023/08/02 09:54:07;;;;;;;4.05;3.75;;;;;;;34.93;32.66;94113.47;5071091;28;20210;-43
2023/08/02 09:56:36;;;;;;;6.72;4.65;;;;;;;34.79;33.79;94110.13;5069532;28;20183;-44
2023/08/02 09:59:03;;;;;;;7.38;4.07;;;;;;;34.59;34.58;94114.09;5069713;28;20772;-43
2023/08/02 10:01:32;;;;;;;4.57;4.18;;;;;;;34.30;34.79;94109.94;5069209;28;20190;-44
2023/08/02 10:04:02;;;;;;;6.60;4.43;;;;;;;34.31;34.83;94116.03;5068908;28;20190;-43
2023/08/02 10:06:35;;;;;;;5.18;4.30;;;;;;;34.24;34.46;94110.34;5069181;28;20546;-45
2023/08/02 10:09:05;;;;;;;4.90;4.40;;;;;;;33.95;35.16;94093.69;5069381;28;20281;-44
2023/08/02 10:11:39;;;;;;;4.68;4.25;;;;;;;33.97;35.08;94111.22;5069112;28;20186;-45
2023/08/02 10:14:07;;;;;;;6.57;4.40;;;;;;;33.86;35.66;94105.31;5069235;28;20729;-44
2023/08/02 10:16:34;;;;;;;7.22;4.90;;;;;;;33.67;35.77;94100.91;5068973;28;20598;-45
2023/08/02 10:19:02;;;;;;;5.78;4.65;;;;;;;33.66;35.46;94102.00;5069068;28;20639;-46
2023/08/02 10:21:31;;;;;;;9.13;4.60;;;;;;;33.64;36.12;94100.75;5069098;28;20194;-44
2023/08/02 10:23:59;;;;;;;9.50;4.70;;;;;;;33.67;36.28;94095.59;5069261;28;20190;-45
2023/08/02 10:26:27;;;;;;;5.97;4.63;;;;;;;33.54;36.15;94101.72;5068938;28;20197;-44
2023/08/02 10:28:57;;;;;;;5.90;4.50;;;;;;;33.38;36.45;94095.94;5069214;28;20756;-44
2023/08/02 10:31:24;;;;;;;6.22;4.70;;;;;;;33.17;36.32;94095.53;5068548;28;20233;-44
2023/08/02 10:33:51;;;;;;;8.73;5.25;;;;;;;33.02;36.93;94092.38;5068903;28;20190;-44
2023/08/02 10:36:18;;;;;;;8.65;4.30;;;;;;;33.02;36.94;94084.41;5068896;28;20240;-44
2023/08/02 10:38:50;;;;;;;10.15;4.72;;;;;;;33.07;37.08;94079.03;5069242;28;20214;-44
2023/08/02 10:41:18;;;;;;;6.10;4.43;;;;;;;33.06;36.76;94088.06;5068927;28;20729;-44
2023/08/02 10:44:12;;;;;;;9.45;4.70;;;;;;;32.95;36.75;94090.91;5069235;28;20191;-44
2023/08/02 10:46:38;;;;;;;7.57;4.30;;;;;;;32.84;37.04;94078.09;5068996;28;20349;-46
2023/08/02 10:49:38;;;;;;;8.85;4.30;;;;;;;32.81;36.89;94091.91;5069285;28;20200;-44
2023/08/02 10:52:24;;;;;;;6.57;4.22;;;;;;;32.67;36.59;94089.25;5069087;28;20237;-44
2023/08/02 10:55:06;;;;;;;6.15;4.10;;;;;;;32.70;36.62;94096.59;5068715;28;20243;-44
2023/08/02 10:57:33;;;;;;;7.68;4.53;;;;;;;32.69;37.07;94087.09;5068994;28;20182;-44
2023/08/02 11:00:13;;;;;;;7.53;3.67;;;;;;;32.73;36.61;94090.75;5068441;28;20247;-43
2023/08/02 11:02:46;;;;;;;11.30;5.00;;;;;;;32.66;37.21;94072.56;5068689;28;20186;-43
2023/08/02 11:05:13;;;;;;;5.47;4.38;;;;;;;32.73;36.66;94085.44;5068976;28;20214;-45
2023/08/02 11:07:39;;;;;;;8.25;4.43;;;;;;;32.49;37.15;94063.59;5068897;28;20183;-43
2023/08/02 11:10:07;;;;;;;8.02;4.63;;;;;;;32.62;37.27;94084.03;5068624;28;20275;-42
2023/08/02 11:12:34;;;;;;;6.63;4.28;;;;;;;32.69;36.82;94087.88;5068805;28;20202;-44
2023/08/02 11:15:15;;;;;;;5.63;3.95;;;;;;;32.62;36.83;94079.53;5069608;28;20206;-43
2023/08/02 11:17:41;;;;;;;4.38;3.97;;;;;;;32.58;37.14;94086.47;5072137;28;20214;-43
2023/08/02 11:20:09;;;;;;;4.78;4.38;;;;;;;32.67;36.87;94086.59;5072094;28;20229;-43
2023/08/02 11:22:37;;;;;;;4.80;4.30;;;;;;;32.56;36.85;94077.25;5071989;28;20186;-44
2023/08/02 11:25:06;;;;;;;4.88;4.38;;;;;;;32.66;36.51;94083.16;5071922;28;20217;-44
2023/08/02 11:27:34;;;;;;;4.88;3.83;;;;;;;32.66;36.70;94077.06;5072269;28;20626;-43
2023/08/02 11:30:04;;;;;;;6.20;4.47;;;;;;;32.51;36.41;94043.69;5071676;28;20258;-44
2023/08/02 11:32:32;;;;;;;6.18;4.53;;;;;;;32.60;36.34;94062.34;5072290;28;20186;-44
2023/08/02 11:34:59;;;;;;;5.20;4.28;;;;;;;32.53;37.00;94062.72;5071992;28;20304;-44